This is the latest recevied weather packets stored in our database for station/object IT9RID. If no packets are shown the sender has not sent any weather packets the latest 1 day(s).
| Time | Temp. | Humidity | Pressure | Rain* | Wind** | Luminosity | Snow |
|---|---|---|---|---|---|---|---|
| 1778007869 | 17.78° C | 80% | 1015.4 hPa | 0 mm | 0 m/s | - | - |
| 1778007268 | 18.33° C | 80% | 1015.3 hPa | 0 mm | 0 m/s | - | - |
| 1778006669 | 18.33° C | 80% | 1015.3 hPa | 0 mm | 0 m/s | - | - |
| 1778006068 | 18.33° C | 80% | 1015.2 hPa | 0 mm | 0 m/s | - | - |
| 1778005467 | 18.33° C | 79% | 1015.3 hPa | 0 mm | 0 m/s | - | - |
| 1778004867 | 18.33° C | 79% | 1015.4 hPa | 0 mm | 0 m/s | - | - |
| 1778004267 | 18.33° C | 78% | 1015.6 hPa | 0 mm | 0 m/s | - | - |
| 1778003667 | 18.33° C | 78% | 1015.6 hPa | 0 mm | 0 m/s | - | - |
| 1778003067 | 18.33° C | 78% | 1015.5 hPa | 0 mm | 0 m/s | - | - |
| 1778002467 | 18.33° C | 78% | 1015.4 hPa | 0 mm | 0 m/s | - | - |
| 1778001867 | 18.33° C | 77% | 1015.5 hPa | 0 mm | 0 m/s | - | - |
| 1778001266 | 18.89° C | 75% | 1015.5 hPa | 0 mm | 0 m/s | - | - |
| 1778000666 | 19.44° C | 72% | 1015.5 hPa | 0 mm | 0.45 m/s, 246° | - | - |
| 1778000066 | 20° C | 70% | 1015.6 hPa | 0 mm | 0 m/s | - | - |
| 1777999466 | 19.44° C | 68% | 1015.6 hPa | 0 mm | 0.45 m/s, 263° | - | - |
| 1777998867 | 20° C | 67% | 1015.6 hPa | 0 mm | 0 m/s | - | - |
| 1777998265 | 20° C | 67% | 1015.6 hPa | 0 mm | 0 m/s | - | - |
| 1777997666 | 20.56° C | 67% | 1015.6 hPa | 0 mm | 0 m/s | - | - |
| 1777997065 | 20.56° C | 67% | 1015.6 hPa | 0 mm | 0 m/s | - | - |
| 1777996465 | 20° C | 67% | 1015.6 hPa | 0 mm | 0 m/s | - | - |
| 1777995865 | 20° C | 66% | 1015.7 hPa | 0 mm | 1.34 m/s, 342° | - | - |
| 1777995265 | 20.56° C | 66% | 1015.5 hPa | 0 mm | 1.34 m/s, 346° | - | - |
| 1777994665 | 20.56° C | 65% | 1015.5 hPa | 0 mm | 1.34 m/s, 315° | - | - |
| 1777994065 | 21.11° C | 63% | 1015.5 hPa | 0 mm | 0 m/s | - | - |
| 1777993464 | 21.67° C | 62% | 1015.4 hPa | 0 mm | 0 m/s | - | - |
* Rain latest hour (hover to see other rain measurements)
** Current wind speed in m/s (hover to see current wind gust speed)